sensor_id;sensor_type;location;lat;lon;timestamp;temperature;humidity
38568;DHT22;24338;48.280;10.970;2023-03-23T00:01:17;6.50;99.90
38568;DHT22;24338;48.280;10.970;2023-03-23T00:03:51;6.40;99.90
38568;DHT22;24338;48.280;10.970;2023-03-23T00:06:19;6.40;99.90
38568;DHT22;24338;48.280;10.970;2023-03-23T00:08:49;6.40;99.90
38568;DHT22;24338;48.280;10.970;2023-03-23T00:11:27;6.50;99.90
38568;DHT22;24338;48.280;10.970;2023-03-23T00:13:56;6.60;99.90
38568;DHT22;24338;48.280;10.970;2023-03-23T00:16:30;6.60;99.90
38568;DHT22;24338;48.280;10.970;2023-03-23T00:19:00;6.60;99.90
38568;DHT22;24338;48.280;10.970;2023-03-23T00:21:34;6.60;99.90
38568;DHT22;24338;48.280;10.970;2023-03-23T00:24:09;6.60;99.90
38568;DHT22;24338;48.280;10.970;2023-03-23T00:26:49;6.60;99.90
38568;DHT22;24338;48.280;10.970;2023-03-23T00:29:22;6.50;99.90
38568;DHT22;24338;48.280;10.970;2023-03-23T00:31:51;6.50;99.90
38568;DHT22;24338;48.280;10.970;2023-03-23T00:34:22;6.50;99.90
38568;DHT22;24338;48.280;10.970;2023-03-23T00:36:54;6.50;99.90
38568;DHT22;24338;48.280;10.970;2023-03-23T00:39:29;6.50;99.90
38568;DHT22;24338;48.280;10.970;2023-03-23T00:41:56;6.50;99.90
38568;DHT22;24338;48.280;10.970;2023-03-23T00:44:31;6.50;99.90
38568;DHT22;24338;48.280;10.970;2023-03-23T00:46:59;6.40;99.90
38568;DHT22;24338;48.280;10.970;2023-03-23T00:49:28;6.40;99.90
38568;DHT22;24338;48.280;10.970;2023-03-23T00:51:57;6.40;99.90
38568;DHT22;24338;48.280;10.970;2023-03-23T00:54:25;6.30;99.90
38568;DHT22;24338;48.280;10.970;2023-03-23T00:56:54;6.40;99.90
38568;DHT22;24338;48.280;10.970;2023-03-23T00:59:21;6.40;99.90
38568;DHT22;24338;48.280;10.970;2023-03-23T01:01:49;6.40;99.90
38568;DHT22;24338;48.280;10.970;2023-03-23T01:04:17;6.50;99.90
38568;DHT22;24338;48.280;10.970;2023-03-23T01:06:49;6.50;99.90
38568;DHT22;24338;48.280;10.970;2023-03-23T01:09:21;6.60;99.90
38568;DHT22;24338;48.280;10.970;2023-03-23T01:11:49;6.60;99.90
38568;DHT22;24338;48.280;10.970;2023-03-23T01:14:17;6.70;99.90
38568;DHT22;24338;48.280;10.970;2023-03-23T01:16:44;6.80;99.90
38568;DHT22;24338;48.280;10.970;2023-03-23T01:19:11;6.80;99.90
38568;DHT22;24338;48.280;10.970;2023-03-23T01:21:37;6.90;99.90
38568;DHT22;24338;48.280;10.970;2023-03-23T01:24:04;6.90;99.90
38568;DHT22;24338;48.280;10.970;2023-03-23T01:26:32;6.90;99.90
38568;DHT22;24338;48.280;10.970;2023-03-23T01:28:59;6.90;99.90
38568;DHT22;24338;48.280;10.970;2023-03-23T01:31:25;6.90;99.90
38568;DHT22;24338;48.280;10.970;2023-03-23T01:33:52;6.90;99.90
38568;DHT22;24338;48.280;10.970;2023-03-23T01:36:24;6.90;99.90
38568;DHT22;24338;48.280;10.970;2023-03-23T01:38:52;6.90;99.90
38568;DHT22;24338;48.280;10.970;2023-03-23T01:41:21;7.00;99.90
38568;DHT22;24338;48.280;10.970;2023-03-23T01:46:25;7.00;99.90
38568;DHT22;24338;48.280;10.970;2023-03-23T01:48:53;7.10;99.90
38568;DHT22;24338;48.280;10.970;2023-03-23T01:51:21;7.20;99.90
38568;DHT22;24338;48.280;10.970;2023-03-23T01:53:53;7.20;99.90
38568;DHT22;24338;48.280;10.970;2023-03-23T01:56:23;7.20;99.90
38568;DHT22;24338;48.280;10.970;2023-03-23T01:58:54;7.20;99.90
38568;DHT22;24338;48.280;10.970;2023-03-23T02:01:22;7.30;99.90
38568;DHT22;24338;48.280;10.970;2023-03-23T02:03:52;7.30;99.90
38568;DHT22;24338;48.280;10.970;2023-03-23T02:06:20;7.40;99.90
38568;DHT22;24338;48.280;10.970;2023-03-23T02:08:48;7.40;99.90
38568;DHT22;24338;48.280;10.970;2023-03-23T02:11:18;7.40;99.90
38568;DHT22;24338;48.280;10.970;2023-03-23T02:13:45;7.40;99.90
38568;DHT22;24338;48.280;10.970;2023-03-23T02:30:54;7.40;99.90
38568;DHT22;24338;48.280;10.970;2023-03-23T02:35:38;7.50;99.90
38568;DHT22;24338;48.280;10.970;2023-03-23T02:38:11;7.50;99.90
38568;DHT22;24338;48.280;10.970;2023-03-23T02:40:42;7.50;99.90
38568;DHT22;24338;48.280;10.970;2023-03-23T02:43:13;7.50;99.90
38568;DHT22;24338;48.280;10.970;2023-03-23T02:45:42;7.50;99.90
38568;DHT22;24338;48.280;10.970;2023-03-23T02:48:10;7.50;99.90
38568;DHT22;24338;48.280;10.970;2023-03-23T02:50:41;7.50;99.90
38568;DHT22;24338;48.280;10.970;2023-03-23T02:53:11;7.50;99.90
38568;DHT22;24338;48.280;10.970;2023-03-23T02:55:41;7.50;99.90
38568;DHT22;24338;48.280;10.970;2023-03-23T02:58:10;7.50;99.90
38568;DHT22;24338;48.280;10.970;2023-03-23T03:00:39;7.50;99.90
38568;DHT22;24338;48.280;10.970;2023-03-23T03:03:14;7.50;99.90
38568;DHT22;24338;48.280;10.970;2023-03-23T03:11:07;7.50;99.90
38568;DHT22;24338;48.280;10.970;2023-03-23T03:13:54;7.40;99.90
38568;DHT22;24338;48.280;10.970;2023-03-23T03:19:06;7.40;99.90
38568;DHT22;24338;48.280;10.970;2023-03-23T03:21:35;7.40;99.90
38568;DHT22;24338;48.280;10.970;2023-03-23T03:24:04;7.30;99.90
38568;DHT22;24338;48.280;10.970;2023-03-23T03:26:43;7.40;99.90
38568;DHT22;24338;48.280;10.970;2023-03-23T03:29:21;7.40;99.90
38568;DHT22;24338;48.280;10.970;2023-03-23T03:31:51;7.40;99.90
38568;DHT22;24338;48.280;10.970;2023-03-23T03:34:21;7.40;99.90
38568;DHT22;24338;48.280;10.970;2023-03-23T03:36:53;7.40;99.90
38568;DHT22;24338;48.280;10.970;2023-03-23T03:39:22;7.50;99.90
38568;DHT22;24338;48.280;10.970;2023-03-23T03:41:50;7.50;99.90
38568;DHT22;24338;48.280;10.970;2023-03-23T03:44:19;7.50;99.90
38568;DHT22;24338;48.280;10.970;2023-03-23T03:46:51;7.50;99.90
38568;DHT22;24338;48.280;10.970;2023-03-23T03:49:20;7.50;99.90
38568;DHT22;24338;48.280;10.970;2023-03-23T03:51:50;7.50;99.90
38568;DHT22;24338;48.280;10.970;2023-03-23T03:54:20;7.60;99.90
38568;DHT22;24338;48.280;10.970;2023-03-23T03:56:50;7.60;99.90
38568;DHT22;24338;48.280;10.970;2023-03-23T03:59:25;7.60;99.90
38568;DHT22;24338;48.280;10.970;2023-03-23T04:01:56;7.60;99.90
38568;DHT22;24338;48.280;10.970;2023-03-23T04:04:26;7.60;99.90
38568;DHT22;24338;48.280;10.970;2023-03-23T04:06:56;7.60;99.90
38568;DHT22;24338;48.280;10.970;2023-03-23T04:09:27;7.70;99.90
38568;DHT22;24338;48.280;10.970;2023-03-23T04:11:59;7.70;99.90
38568;DHT22;24338;48.280;10.970;2023-03-23T04:14:34;7.70;99.90
38568;DHT22;24338;48.280;10.970;2023-03-23T04:17:04;7.70;99.90
38568;DHT22;24338;48.280;10.970;2023-03-23T04:19:35;7.70;99.90
38568;DHT22;24338;48.280;10.970;2023-03-23T04:22:05;7.70;99.90
38568;DHT22;24338;48.280;10.970;2023-03-23T04:24:34;7.70;99.90
38568;DHT22;24338;48.280;10.970;2023-03-23T04:27:03;7.80;99.90
38568;DHT22;24338;48.280;10.970;2023-03-23T04:29:33;7.80;99.90
38568;DHT22;24338;48.280;10.970;2023-03-23T04:32:37;7.80;99.90
38568;DHT22;24338;48.280;10.970;2023-03-23T04:35:09;7.80;99.90
38568;DHT22;24338;48.280;10.970;2023-03-23T04:37:37;7.90;99.90
38568;DHT22;24338;48.280;10.970;2023-03-23T04:40:04;7.90;99.90
38568;DHT22;24338;48.280;10.970;2023-03-23T04:42:37;7.90;99.90
38568;DHT22;24338;48.280;10.970;2023-03-23T04:45:06;8.00;99.90
38568;DHT22;24338;48.280;10.970;2023-03-23T04:47:35;8.00;99.90
38568;DHT22;24338;48.280;10.970;2023-03-23T04:50:12;8.00;99.90
38568;DHT22;24338;48.280;10.970;2023-03-23T04:52:39;8.00;99.90
38568;DHT22;24338;48.280;10.970;2023-03-23T04:55:11;8.00;99.90
38568;DHT22;24338;48.280;10.970;2023-03-23T04:57:38;8.00;99.90
38568;DHT22;24338;48.280;10.970;2023-03-23T05:00:04;8.10;99.90
38568;DHT22;24338;48.280;10.970;2023-03-23T05:02:36;8.10;99.90
38568;DHT22;24338;48.280;10.970;2023-03-23T05:05:02;8.20;99.90
38568;DHT22;24338;48.280;10.970;2023-03-23T05:07:27;8.30;99.90
38568;DHT22;24338;48.280;10.970;2023-03-23T05:09:53;8.30;99.90
38568;DHT22;24338;48.280;10.970;2023-03-23T05:12:19;8.40;99.90
38568;DHT22;24338;48.280;10.970;2023-03-23T05:14:45;8.40;99.90
38568;DHT22;24338;48.280;10.970;2023-03-23T05:17:10;8.50;99.90
38568;DHT22;24338;48.280;10.970;2023-03-23T05:19:38;8.50;99.90
38568;DHT22;24338;48.280;10.970;2023-03-23T05:22:03;8.60;99.90
38568;DHT22;24338;48.280;10.970;2023-03-23T05:24:30;8.70;99.90
38568;DHT22;24338;48.280;10.970;2023-03-23T05:26:59;8.70;99.90
38568;DHT22;24338;48.280;10.970;2023-03-23T05:29:25;8.80;99.90
38568;DHT22;24338;48.280;10.970;2023-03-23T05:31:54;8.80;99.90
38568;DHT22;24338;48.280;10.970;2023-03-23T05:34:21;8.80;99.90
38568;DHT22;24338;48.280;10.970;2023-03-23T05:36:46;8.70;99.90
38568;DHT22;24338;48.280;10.970;2023-03-23T05:39:13;8.80;99.90
38568;DHT22;24338;48.280;10.970;2023-03-23T05:41:40;8.80;99.90
38568;DHT22;24338;48.280;10.970;2023-03-23T05:44:05;8.80;99.90
38568;DHT22;24338;48.280;10.970;2023-03-23T05:46:31;8.80;99.90
38568;DHT22;24338;48.280;10.970;2023-03-23T05:48:57;8.80;99.90
38568;DHT22;24338;48.280;10.970;2023-03-23T05:51:23;8.80;99.90
38568;DHT22;24338;48.280;10.970;2023-03-23T05:53:49;8.80;99.90
38568;DHT22;24338;48.280;10.970;2023-03-23T05:56:15;8.80;99.90
38568;DHT22;24338;48.280;10.970;2023-03-23T05:58:40;8.90;99.90
38568;DHT22;24338;48.280;10.970;2023-03-23T06:01:07;8.90;99.90
38568;DHT22;24338;48.280;10.970;2023-03-23T06:03:33;8.90;99.90
38568;DHT22;24338;48.280;10.970;2023-03-23T06:06:02;8.90;99.90
38568;DHT22;24338;48.280;10.970;2023-03-23T06:08:28;9.00;99.90
38568;DHT22;24338;48.280;10.970;2023-03-23T06:10:54;9.00;99.90
38568;DHT22;24338;48.280;10.970;2023-03-23T06:13:21;9.10;99.90
38568;DHT22;24338;48.280;10.970;2023-03-23T06:15:47;9.10;99.90
38568;DHT22;24338;48.280;10.970;2023-03-23T06:18:13;9.20;99.90
38568;DHT22;24338;48.280;10.970;2023-03-23T06:20:39;9.30;99.90
38568;DHT22;24338;48.280;10.970;2023-03-23T06:23:06;9.30;99.90
38568;DHT22;24338;48.280;10.970;2023-03-23T06:25:32;9.50;99.90
38568;DHT22;24338;48.280;10.970;2023-03-23T06:27:58;9.50;99.90
38568;DHT22;24338;48.280;10.970;2023-03-23T06:30:24;9.50;99.90
38568;DHT22;24338;48.280;10.970;2023-03-23T06:32:52;9.60;99.90
38568;DHT22;24338;48.280;10.970;2023-03-23T06:35:18;9.60;99.90
38568;DHT22;24338;48.280;10.970;2023-03-23T06:37:44;9.70;99.90
38568;DHT22;24338;48.280;10.970;2023-03-23T06:40:11;9.70;99.90
38568;DHT22;24338;48.280;10.970;2023-03-23T06:42:37;9.80;99.90
38568;DHT22;24338;48.280;10.970;2023-03-23T06:45:04;9.90;99.90
38568;DHT22;24338;48.280;10.970;2023-03-23T06:47:30;10.00;99.90
38568;DHT22;24338;48.280;10.970;2023-03-23T06:49:59;10.10;99.90
38568;DHT22;24338;48.280;10.970;2023-03-23T06:52:25;10.20;99.90
38568;DHT22;24338;48.280;10.970;2023-03-23T06:54:52;10.30;99.90
38568;DHT22;24338;48.280;10.970;2023-03-23T06:57:18;10.50;99.90
38568;DHT22;24338;48.280;10.970;2023-03-23T06:59:44;10.50;99.90
38568;DHT22;24338;48.280;10.970;2023-03-23T07:02:12;10.60;99.90
38568;DHT22;24338;48.280;10.970;2023-03-23T07:04:40;10.70;99.90
38568;DHT22;24338;48.280;10.970;2023-03-23T07:07:08;10.70;99.90
38568;DHT22;24338;48.280;10.970;2023-03-23T07:09:34;10.80;99.90
38568;DHT22;24338;48.280;10.970;2023-03-23T07:11:59;10.90;99.90
38568;DHT22;24338;48.280;10.970;2023-03-23T07:14:25;11.00;99.90
38568;DHT22;24338;48.280;10.970;2023-03-23T07:16:52;11.00;99.90
38568;DHT22;24338;48.280;10.970;2023-03-23T07:19:19;11.20;99.90
38568;DHT22;24338;48.280;10.970;2023-03-23T07:21:44;11.30;99.90
38568;DHT22;24338;48.280;10.970;2023-03-23T07:24:11;11.50;99.90
38568;DHT22;24338;48.280;10.970;2023-03-23T07:26:41;11.50;99.90
38568;DHT22;24338;48.280;10.970;2023-03-23T07:29:08;11.70;99.90
38568;DHT22;24338;48.280;10.970;2023-03-23T07:31:34;11.70;99.90
38568;DHT22;24338;48.280;10.970;2023-03-23T07:33:59;11.70;99.90
38568;DHT22;24338;48.280;10.970;2023-03-23T07:36:26;11.80;99.90
38568;DHT22;24338;48.280;10.970;2023-03-23T07:38:52;11.90;99.90
38568;DHT22;24338;48.280;10.970;2023-03-23T07:41:18;12.00;99.90
38568;DHT22;24338;48.280;10.970;2023-03-23T07:43:45;12.00;99.90
38568;DHT22;24338;48.280;10.970;2023-03-23T07:46:12;12.20;99.90
38568;DHT22;24338;48.280;10.970;2023-03-23T07:48:41;12.20;99.90
38568;DHT22;24338;48.280;10.970;2023-03-23T07:51:07;12.40;99.90
38568;DHT22;24338;48.280;10.970;2023-03-23T07:53:33;12.50;99.90
38568;DHT22;24338;48.280;10.970;2023-03-23T07:55:59;12.60;99.90
38568;DHT22;24338;48.280;10.970;2023-03-23T07:58:26;12.70;99.90
38568;DHT22;24338;48.280;10.970;2023-03-23T08:00:52;12.90;99.90
38568;DHT22;24338;48.280;10.970;2023-03-23T08:03:18;13.00;99.90
38568;DHT22;24338;48.280;10.970;2023-03-23T08:05:44;13.10;99.90
38568;DHT22;24338;48.280;10.970;2023-03-23T08:08:10;13.20;99.90
38568;DHT22;24338;48.280;10.970;2023-03-23T08:10:36;13.30;99.90
38568;DHT22;24338;48.280;10.970;2023-03-23T08:13:03;13.40;99.90
38568;DHT22;24338;48.280;10.970;2023-03-23T08:15:29;13.60;99.90
38568;DHT22;24338;48.280;10.970;2023-03-23T08:17:55;13.70;99.90
38568;DHT22;24338;48.280;10.970;2023-03-23T08:20:21;13.90;99.90
38568;DHT22;24338;48.280;10.970;2023-03-23T08:22:55;14.00;99.90
38568;DHT22;24338;48.280;10.970;2023-03-23T08:25:21;14.10;99.90
38568;DHT22;24338;48.280;10.970;2023-03-23T08:27:49;14.20;99.90
38568;DHT22;24338;48.280;10.970;2023-03-23T08:30:18;14.30;99.90
38568;DHT22;24338;48.280;10.970;2023-03-23T08:32:48;14.40;99.90
38568;DHT22;24338;48.280;10.970;2023-03-23T08:35:15;14.60;99.90
38568;DHT22;24338;48.280;10.970;2023-03-23T08:37:41;14.70;99.90
38568;DHT22;24338;48.280;10.970;2023-03-23T08:40:09;14.80;99.90
38568;DHT22;24338;48.280;10.970;2023-03-23T08:42:39;15.00;99.90
38568;DHT22;24338;48.280;10.970;2023-03-23T08:45:07;15.00;99.90
38568;DHT22;24338;48.280;10.970;2023-03-23T08:47:34;15.20;99.90
38568;DHT22;24338;48.280;10.970;2023-03-23T08:50:01;15.30;99.90
38568;DHT22;24338;48.280;10.970;2023-03-23T08:52:28;15.40;99.90
38568;DHT22;24338;48.280;10.970;2023-03-23T08:54:55;15.40;99.90
38568;DHT22;24338;48.280;10.970;2023-03-23T08:57:23;15.50;99.40
38568;DHT22;24338;48.280;10.970;2023-03-23T08:59:50;15.50;96.80
38568;DHT22;24338;48.280;10.970;2023-03-23T09:02:16;15.50;97.70
38568;DHT22;24338;48.280;10.970;2023-03-23T09:04:43;15.60;95.70
38568;DHT22;24338;48.280;10.970;2023-03-23T09:07:12;15.60;95.70
38568;DHT22;24338;48.280;10.970;2023-03-23T09:09:40;15.70;93.10
38568;DHT22;24338;48.280;10.970;2023-03-23T09:12:07;15.80;93.50
38568;DHT22;24338;48.280;10.970;2023-03-23T09:14:37;15.90;92.40
38568;DHT22;24338;48.280;10.970;2023-03-23T09:17:03;16.00;92.30
38568;DHT22;24338;48.280;10.970;2023-03-23T09:19:30;16.10;91.50
38568;DHT22;24338;48.280;10.970;2023-03-23T09:21:56;16.10;91.80
38568;DHT22;24338;48.280;10.970;2023-03-23T09:24:25;16.20;91.80
38568;DHT22;24338;48.280;10.970;2023-03-23T09:26:51;16.30;91.00
38568;DHT22;24338;48.280;10.970;2023-03-23T09:29:17;16.40;91.20
38568;DHT22;24338;48.280;10.970;2023-03-23T09:31:44;16.40;91.30
38568;DHT22;24338;48.280;10.970;2023-03-23T09:34:12;16.40;90.00
38568;DHT22;24338;48.280;10.970;2023-03-23T09:36:38;16.40;90.30
38568;DHT22;24338;48.280;10.970;2023-03-23T09:39:08;16.60;90.90
38568;DHT22;24338;48.280;10.970;2023-03-23T09:53:22;16.60;90.00
38568;DHT22;24338;48.280;10.970;2023-03-23T09:55:28;16.60;89.30
38568;DHT22;24338;48.280;10.970;2023-03-23T09:58:10;16.70;89.60
38568;DHT22;24338;48.280;10.970;2023-03-23T10:00:46;16.60;89.50
38568;DHT22;24338;48.280;10.970;2023-03-23T10:03:22;16.60;90.00
38568;DHT22;24338;48.280;10.970;2023-03-23T10:05:51;16.60;88.90
38568;DHT22;24338;48.280;10.970;2023-03-23T10:08:23;16.60;89.50
38568;DHT22;24338;48.280;10.970;2023-03-23T10:11:08;16.50;90.50
38568;DHT22;24338;48.280;10.970;2023-03-23T10:16:07;16.40;89.30
38568;DHT22;24338;48.280;10.970;2023-03-23T10:18:38;16.40;90.30
38568;DHT22;24338;48.280;10.970;2023-03-23T10:21:13;16.40;90.90
38568;DHT22;24338;48.280;10.970;2023-03-23T10:23:46;16.40;91.10
38568;DHT22;24338;48.280;10.970;2023-03-23T10:28:57;16.50;90.20
38568;DHT22;24338;48.280;10.970;2023-03-23T10:31:28;16.40;90.30
38568;DHT22;24338;48.280;10.970;2023-03-23T10:33:59;16.40;90.70
38568;DHT22;24338;48.280;10.970;2023-03-23T10:36:36;16.40;91.20
38568;DHT22;24338;48.280;10.970;2023-03-23T10:39:13;16.40;91.20
38568;DHT22;24338;48.280;10.970;2023-03-23T10:41:39;16.50;90.80
38568;DHT22;24338;48.280;10.970;2023-03-23T10:47:09;16.60;90.50
38568;DHT22;24338;48.280;10.970;2023-03-23T10:49:44;16.70;90.00
38568;DHT22;24338;48.280;10.970;2023-03-23T10:52:34;16.80;90.50
38568;DHT22;24338;48.280;10.970;2023-03-23T10:55:05;16.90;88.90
38568;DHT22;24338;48.280;10.970;2023-03-23T10:57:33;16.90;89.60
38568;DHT22;24338;48.280;10.970;2023-03-23T11:02:47;17.10;87.30
38568;DHT22;24338;48.280;10.970;2023-03-23T11:05:18;17.30;86.90
38568;DHT22;24338;48.280;10.970;2023-03-23T11:07:53;17.60;87.40
38568;DHT22;24338;48.280;10.970;2023-03-23T11:10:26;17.90;83.80
38568;DHT22;24338;48.280;10.970;2023-03-23T11:12:56;17.80;82.20
38568;DHT22;24338;48.280;10.970;2023-03-23T11:15:38;17.80;81.90
38568;DHT22;24338;48.280;10.970;2023-03-23T11:18:13;17.80;83.30
38568;DHT22;24338;48.280;10.970;2023-03-23T11:20:45;17.90;82.10
38568;DHT22;24338;48.280;10.970;2023-03-23T11:23:34;17.90;81.00
38568;DHT22;24338;48.280;10.970;2023-03-23T11:26:40;17.90;80.60
38568;DHT22;24338;48.280;10.970;2023-03-23T11:29:14;17.80;81.00
38568;DHT22;24338;48.280;10.970;2023-03-23T11:34:31;17.90;80.30
38568;DHT22;24338;48.280;10.970;2023-03-23T11:37:08;17.90;79.60
38568;DHT22;24338;48.280;10.970;2023-03-23T11:42:19;17.60;80.50
38568;DHT22;24338;48.280;10.970;2023-03-23T11:44:46;17.50;80.00
38568;DHT22;24338;48.280;10.970;2023-03-23T11:55:52;17.50;81.00
38568;DHT22;24338;48.280;10.970;2023-03-23T11:58:21;17.60;81.80
38568;DHT22;24338;48.280;10.970;2023-03-23T12:01:32;17.70;80.80
38568;DHT22;24338;48.280;10.970;2023-03-23T12:12:19;17.50;83.00
38568;DHT22;24338;48.280;10.970;2023-03-23T12:21:13;17.30;82.10
38568;DHT22;24338;48.280;10.970;2023-03-23T12:26:30;17.40;81.90
38568;DHT22;24338;48.280;10.970;2023-03-23T12:42:27;17.60;82.80
38568;DHT22;24338;48.280;10.970;2023-03-23T12:47:40;17.60;81.70
38568;DHT22;24338;48.280;10.970;2023-03-23T12:58:01;17.80;81.00
38568;DHT22;24338;48.280;10.970;2023-03-23T13:00:33;17.80;81.80
38568;DHT22;24338;48.280;10.970;2023-03-23T13:03:14;17.70;80.40
38568;DHT22;24338;48.280;10.970;2023-03-23T13:05:57;17.70;82.80
38568;DHT22;24338;48.280;10.970;2023-03-23T13:08:43;17.50;81.40
38568;DHT22;24338;48.280;10.970;2023-03-23T13:11:39;17.50;81.00
38568;DHT22;24338;48.280;10.970;2023-03-23T13:14:18;17.50;83.20
38568;DHT22;24338;48.280;10.970;2023-03-23T13:17:11;17.70;83.20
38568;DHT22;24338;48.280;10.970;2023-03-23T13:25:53;17.80;82.70
38568;DHT22;24338;48.280;10.970;2023-03-23T13:28:26;17.70;83.30
38568;DHT22;24338;48.280;10.970;2023-03-23T13:30:59;17.60;84.00
38568;DHT22;24338;48.280;10.970;2023-03-23T13:33:28;17.60;84.50
38568;DHT22;24338;48.280;10.970;2023-03-23T13:35:55;17.60;83.60
38568;DHT22;24338;48.280;10.970;2023-03-23T13:38:28;17.50;82.30
38568;DHT22;24338;48.280;10.970;2023-03-23T13:40:55;17.50;82.30
38568;DHT22;24338;48.280;10.970;2023-03-23T13:43:30;17.50;82.50
38568;DHT22;24338;48.280;10.970;2023-03-23T13:46:11;17.50;81.30
38568;DHT22;24338;48.280;10.970;2023-03-23T13:48:46;17.50;82.80
38568;DHT22;24338;48.280;10.970;2023-03-23T13:56:55;17.30;82.60
38568;DHT22;24338;48.280;10.970;2023-03-23T14:01:54;17.30;83.20
38568;DHT22;24338;48.280;10.970;2023-03-23T14:04:22;17.30;82.80
38568;DHT22;24338;48.280;10.970;2023-03-23T14:06:50;17.30;84.40
38568;DHT22;24338;48.280;10.970;2023-03-23T14:09:23;17.10;83.30
38568;DHT22;24338;48.280;10.970;2023-03-23T14:12:05;17.10;83.20
38568;DHT22;24338;48.280;10.970;2023-03-23T14:14:44;17.00;85.10
38568;DHT22;24338;48.280;10.970;2023-03-23T14:17:26;16.90;83.90
38568;DHT22;24338;48.280;10.970;2023-03-23T14:19:56;16.80;83.90
38568;DHT22;24338;48.280;10.970;2023-03-23T14:22:32;16.70;84.90
38568;DHT22;24338;48.280;10.970;2023-03-23T14:25:13;16.60;84.70
38568;DHT22;24338;48.280;10.970;2023-03-23T14:27:40;16.70;85.30
38568;DHT22;24338;48.280;10.970;2023-03-23T14:30:34;16.60;87.50
38568;DHT22;24338;48.280;10.970;2023-03-23T14:33:05;16.50;88.40
38568;DHT22;24338;48.280;10.970;2023-03-23T14:35:36;16.50;88.00
38568;DHT22;24338;48.280;10.970;2023-03-23T14:38:19;16.60;89.00
38568;DHT22;24338;48.280;10.970;2023-03-23T14:40:45;16.60;86.10
38568;DHT22;24338;48.280;10.970;2023-03-23T14:43:15;16.50;87.50
38568;DHT22;24338;48.280;10.970;2023-03-23T14:45:42;16.50;86.10
38568;DHT22;24338;48.280;10.970;2023-03-23T14:48:12;16.50;87.80
38568;DHT22;24338;48.280;10.970;2023-03-23T14:50:49;16.40;87.70
38568;DHT22;24338;48.280;10.970;2023-03-23T14:53:24;16.40;88.00
38568;DHT22;24338;48.280;10.970;2023-03-23T14:55:52;16.30;89.60
38568;DHT22;24338;48.280;10.970;2023-03-23T14:58:21;16.20;87.50
38568;DHT22;24338;48.280;10.970;2023-03-23T15:01:13;16.20;89.40
38568;DHT22;24338;48.280;10.970;2023-03-23T15:03:44;16.20;89.80
38568;DHT22;24338;48.280;10.970;2023-03-23T15:06:17;16.20;90.50
38568;DHT22;24338;48.280;10.970;2023-03-23T15:08:45;16.10;90.20
38568;DHT22;24338;48.280;10.970;2023-03-23T15:11:22;16.00;90.00
38568;DHT22;24338;48.280;10.970;2023-03-23T15:13:59;16.00;90.30
38568;DHT22;24338;48.280;10.970;2023-03-23T15:16:32;15.90;90.90
38568;DHT22;24338;48.280;10.970;2023-03-23T15:19:20;15.80;91.00
38568;DHT22;24338;48.280;10.970;2023-03-23T15:21:50;15.80;91.20
38568;DHT22;24338;48.280;10.970;2023-03-23T15:26:54;15.70;91.40
38568;DHT22;24338;48.280;10.970;2023-03-23T15:29:27;15.60;91.00
38568;DHT22;24338;48.280;10.970;2023-03-23T15:31:57;15.70;91.40
38568;DHT22;24338;48.280;10.970;2023-03-23T15:34:44;15.60;91.50
38568;DHT22;24338;48.280;10.970;2023-03-23T15:37:24;15.50;92.40
38568;DHT22;24338;48.280;10.970;2023-03-23T15:39:51;15.50;92.60
38568;DHT22;24338;48.280;10.970;2023-03-23T15:42:33;15.50;93.50
38568;DHT22;24338;48.280;10.970;2023-03-23T15:52:52;15.30;94.10
38568;DHT22;24338;48.280;10.970;2023-03-23T15:55:29;15.30;93.50
38568;DHT22;24338;48.280;10.970;2023-03-23T15:58:11;15.30;93.70
38568;DHT22;24338;48.280;10.970;2023-03-23T16:00:39;15.30;94.40
38568;DHT22;24338;48.280;10.970;2023-03-23T16:03:12;15.30;93.90
38568;DHT22;24338;48.280;10.970;2023-03-23T16:05:41;15.30;94.30
38568;DHT22;24338;48.280;10.970;2023-03-23T16:08:10;15.20;94.80
38568;DHT22;24338;48.280;10.970;2023-03-23T16:10:37;15.20;94.60
38568;DHT22;24338;48.280;10.970;2023-03-23T16:13:04;15.20;94.70
38568;DHT22;24338;48.280;10.970;2023-03-23T16:15:32;15.20;95.30
38568;DHT22;24338;48.280;10.970;2023-03-23T16:18:02;15.20;95.10
38568;DHT22;24338;48.280;10.970;2023-03-23T16:20:30;15.10;95.60
38568;DHT22;24338;48.280;10.970;2023-03-23T16:22:58;15.10;96.30
38568;DHT22;24338;48.280;10.970;2023-03-23T16:25:26;15.00;96.50
38568;DHT22;24338;48.280;10.970;2023-03-23T16:27:53;15.00;96.70
38568;DHT22;24338;48.280;10.970;2023-03-23T16:30:26;15.00;97.50
38568;DHT22;24338;48.280;10.970;2023-03-23T16:32:54;14.90;98.20
38568;DHT22;24338;48.280;10.970;2023-03-23T16:35:23;14.90;98.70
38568;DHT22;24338;48.280;10.970;2023-03-23T16:37:54;14.80;99.40
38568;DHT22;24338;48.280;10.970;2023-03-23T16:40:35;14.80;99.90
38568;DHT22;24338;48.280;10.970;2023-03-23T16:43:03;14.80;99.90
38568;DHT22;24338;48.280;10.970;2023-03-23T16:45:36;14.70;99.90
38568;DHT22;24338;48.280;10.970;2023-03-23T16:48:05;14.70;99.90
38568;DHT22;24338;48.280;10.970;2023-03-23T16:50:34;14.70;99.90
38568;DHT22;24338;48.280;10.970;2023-03-23T16:53:03;14.60;99.90
38568;DHT22;24338;48.280;10.970;2023-03-23T16:55:30;14.60;99.90
38568;DHT22;24338;48.280;10.970;2023-03-23T16:58:06;14.60;99.90
38568;DHT22;24338;48.280;10.970;2023-03-23T17:00:36;14.50;99.90
38568;DHT22;24338;48.280;10.970;2023-03-23T17:03:06;14.50;99.90
38568;DHT22;24338;48.280;10.970;2023-03-23T17:05:35;14.40;99.90
38568;DHT22;24338;48.280;10.970;2023-03-23T17:08:02;14.40;99.90
38568;DHT22;24338;48.280;10.970;2023-03-23T17:10:30;14.40;99.90
38568;DHT22;24338;48.280;10.970;2023-03-23T17:12:57;14.30;99.90
38568;DHT22;24338;48.280;10.970;2023-03-23T17:15:24;14.30;99.90
38568;DHT22;24338;48.280;10.970;2023-03-23T17:17:52;14.30;99.90
38568;DHT22;24338;48.280;10.970;2023-03-23T17:20:21;14.30;99.90
38568;DHT22;24338;48.280;10.970;2023-03-23T17:22:49;14.30;99.90
38568;DHT22;24338;48.280;10.970;2023-03-23T17:25:16;14.20;99.90
38568;DHT22;24338;48.280;10.970;2023-03-23T17:27:44;14.20;99.90
38568;DHT22;24338;48.280;10.970;2023-03-23T17:30:12;14.10;99.90
38568;DHT22;24338;48.280;10.970;2023-03-23T17:35:13;14.10;99.90
38568;DHT22;24338;48.280;10.970;2023-03-23T17:37:41;14.00;99.90
38568;DHT22;24338;48.280;10.970;2023-03-23T17:40:09;14.00;99.90
38568;DHT22;24338;48.280;10.970;2023-03-23T17:42:36;13.90;99.90
38568;DHT22;24338;48.280;10.970;2023-03-23T17:45:05;13.90;99.90
38568;DHT22;24338;48.280;10.970;2023-03-23T17:47:33;13.90;99.90
38568;DHT22;24338;48.280;10.970;2023-03-23T17:50:00;13.90;99.90
38568;DHT22;24338;48.280;10.970;2023-03-23T17:52:38;13.80;99.90
38568;DHT22;24338;48.280;10.970;2023-03-23T17:55:05;13.80;99.90